sensor_id;sensor_type;location;lat;lon;timestamp;temperature;humidity
73586;DHT22;61865;50.232;18.614;2022-07-22T00:01:24;18.70;81.50
73586;DHT22;61865;50.232;18.614;2022-07-22T00:03:46;18.70;82.50
73586;DHT22;61865;50.232;18.614;2022-07-22T00:06:08;18.60;82.20
73586;DHT22;61865;50.232;18.614;2022-07-22T00:08:30;18.50;82.20
73586;DHT22;61865;50.232;18.614;2022-07-22T00:10:53;18.50;82.30
73586;DHT22;61865;50.232;18.614;2022-07-22T00:13:15;18.40;83.30
73586;DHT22;61865;50.232;18.614;2022-07-22T00:15:37;18.30;85.70
73586;DHT22;61865;50.232;18.614;2022-07-22T00:18:00;18.20;86.00
73586;DHT22;61865;50.232;18.614;2022-07-22T00:20:22;18.10;87.40
73586;DHT22;61865;50.232;18.614;2022-07-22T00:22:44;18.10;87.30
73586;DHT22;61865;50.232;18.614;2022-07-22T00:25:06;18.00;87.70
73586;DHT22;61865;50.232;18.614;2022-07-22T00:27:30;18.00;87.40
73586;DHT22;61865;50.232;18.614;2022-07-22T00:29:52;18.00;88.30
73586;DHT22;61865;50.232;18.614;2022-07-22T00:32:13;17.90;88.60
73586;DHT22;61865;50.232;18.614;2022-07-22T00:34:35;17.90;88.20
73586;DHT22;61865;50.232;18.614;2022-07-22T00:36:57;17.90;89.30
73586;DHT22;61865;50.232;18.614;2022-07-22T00:39:19;17.90;90.10
73586;DHT22;61865;50.232;18.614;2022-07-22T00:41:42;17.90;90.30
73586;DHT22;61865;50.232;18.614;2022-07-22T00:44:07;17.90;90.20
73586;DHT22;61865;50.232;18.614;2022-07-22T00:46:30;17.80;90.20
73586;DHT22;61865;50.232;18.614;2022-07-22T00:48:52;17.90;90.40
73586;DHT22;61865;50.232;18.614;2022-07-22T00:51:14;17.80;90.20
73586;DHT22;61865;50.232;18.614;2022-07-22T00:53:37;17.80;89.20
73586;DHT22;61865;50.232;18.614;2022-07-22T00:55:59;17.80;88.50
73586;DHT22;61865;50.232;18.614;2022-07-22T00:58:21;17.80;90.20
73586;DHT22;61865;50.232;18.614;2022-07-22T01:00:44;17.70;90.30
73586;DHT22;61865;50.232;18.614;2022-07-22T01:03:06;17.80;90.80
73586;DHT22;61865;50.232;18.614;2022-07-22T01:05:28;17.70;90.40
73586;DHT22;61865;50.232;18.614;2022-07-22T01:07:50;17.70;90.80
73586;DHT22;61865;50.232;18.614;2022-07-22T01:10:13;17.70;90.80
73586;DHT22;61865;50.232;18.614;2022-07-22T01:12:36;17.70;90.50
73586;DHT22;61865;50.232;18.614;2022-07-22T01:14:58;17.70;90.60
73586;DHT22;61865;50.232;18.614;2022-07-22T01:17:21;17.60;91.40
73586;DHT22;61865;50.232;18.614;2022-07-22T01:19:43;17.60;90.80
73586;DHT22;61865;50.232;18.614;2022-07-22T01:22:07;17.60;90.80
73586;DHT22;61865;50.232;18.614;2022-07-22T01:24:29;17.60;91.90
73586;DHT22;61865;50.232;18.614;2022-07-22T01:26:51;17.60;91.40
73586;DHT22;61865;50.232;18.614;2022-07-22T01:29:13;17.60;91.90
73586;DHT22;61865;50.232;18.614;2022-07-22T01:31:34;17.60;92.20
73586;DHT22;61865;50.232;18.614;2022-07-22T01:33:57;17.50;92.00
73586;DHT22;61865;50.232;18.614;2022-07-22T01:36:19;17.50;91.60
73586;DHT22;61865;50.232;18.614;2022-07-22T01:38:42;17.40;91.10
73586;DHT22;61865;50.232;18.614;2022-07-22T01:41:04;17.40;91.60
73586;DHT22;61865;50.232;18.614;2022-07-22T01:43:26;17.40;91.20
73586;DHT22;61865;50.232;18.614;2022-07-22T01:45:51;17.30;92.90
73586;DHT22;61865;50.232;18.614;2022-07-22T01:48:13;17.40;94.00
73586;DHT22;61865;50.232;18.614;2022-07-22T01:50:35;17.30;94.00
73586;DHT22;61865;50.232;18.614;2022-07-22T01:52:57;17.30;93.60
73586;DHT22;61865;50.232;18.614;2022-07-22T01:55:20;17.30;93.70
73586;DHT22;61865;50.232;18.614;2022-07-22T01:57:42;17.30;93.70
73586;DHT22;61865;50.232;18.614;2022-07-22T02:00:05;17.30;93.70
73586;DHT22;61865;50.232;18.614;2022-07-22T02:02:29;17.20;94.10
73586;DHT22;61865;50.232;18.614;2022-07-22T02:04:50;17.20;94.50
73586;DHT22;61865;50.232;18.614;2022-07-22T02:07:12;17.20;95.00
73586;DHT22;61865;50.232;18.614;2022-07-22T02:09:34;17.20;95.00
73586;DHT22;61865;50.232;18.614;2022-07-22T02:11:58;17.30;95.40
73586;DHT22;61865;50.232;18.614;2022-07-22T02:14:19;17.40;95.80
73586;DHT22;61865;50.232;18.614;2022-07-22T02:16:42;17.50;95.90
73586;DHT22;61865;50.232;18.614;2022-07-22T02:19:03;17.70;95.70
73586;DHT22;61865;50.232;18.614;2022-07-22T02:21:25;17.80;95.30
73586;DHT22;61865;50.232;18.614;2022-07-22T02:23:47;17.90;95.20
73586;DHT22;61865;50.232;18.614;2022-07-22T02:26:09;18.00;94.60
73586;DHT22;61865;50.232;18.614;2022-07-22T02:28:33;18.00;94.30
73586;DHT22;61865;50.232;18.614;2022-07-22T02:30:54;18.10;94.20
73586;DHT22;61865;50.232;18.614;2022-07-22T02:33:16;18.10;93.60
73586;DHT22;61865;50.232;18.614;2022-07-22T02:35:38;18.10;93.40
73586;DHT22;61865;50.232;18.614;2022-07-22T02:38:00;18.20;93.30
73586;DHT22;61865;50.232;18.614;2022-07-22T02:40:22;18.20;93.30
73586;DHT22;61865;50.232;18.614;2022-07-22T02:42:44;18.30;93.10
73586;DHT22;61865;50.232;18.614;2022-07-22T02:45:08;18.30;93.10
73586;DHT22;61865;50.232;18.614;2022-07-22T02:47:30;18.40;92.80
73586;DHT22;61865;50.232;18.614;2022-07-22T02:49:52;18.40;92.50
73586;DHT22;61865;50.232;18.614;2022-07-22T02:52:14;18.50;92.40
73586;DHT22;61865;50.232;18.614;2022-07-22T02:54:36;18.50;92.30
73586;DHT22;61865;50.232;18.614;2022-07-22T02:56:58;18.60;92.20
73586;DHT22;61865;50.232;18.614;2022-07-22T02:59:19;18.60;92.00
73586;DHT22;61865;50.232;18.614;2022-07-22T03:01:43;18.70;91.70
73586;DHT22;61865;50.232;18.614;2022-07-22T03:04:04;18.80;91.50
73586;DHT22;61865;50.232;18.614;2022-07-22T03:06:26;18.80;91.10
73586;DHT22;61865;50.232;18.614;2022-07-22T03:08:48;18.90;90.70
73586;DHT22;61865;50.232;18.614;2022-07-22T03:11:10;19.00;90.40
73586;DHT22;61865;50.232;18.614;2022-07-22T03:13:32;19.10;90.00
73586;DHT22;61865;50.232;18.614;2022-07-22T03:15:54;19.20;89.80
73586;DHT22;61865;50.232;18.614;2022-07-22T03:18:17;19.30;88.80
73586;DHT22;61865;50.232;18.614;2022-07-22T03:20:39;19.30;88.40
73586;DHT22;61865;50.232;18.614;2022-07-22T03:23:01;19.50;86.90
73586;DHT22;61865;50.232;18.614;2022-07-22T03:25:23;19.60;86.20
73586;DHT22;61865;50.232;18.614;2022-07-22T03:27:45;19.60;86.00
73586;DHT22;61865;50.232;18.614;2022-07-22T03:30:07;19.70;85.60
73586;DHT22;61865;50.232;18.614;2022-07-22T03:32:29;19.70;85.60
73586;DHT22;61865;50.232;18.614;2022-07-22T03:34:53;19.70;85.50
73586;DHT22;61865;50.232;18.614;2022-07-22T03:37:15;19.70;85.10
73586;DHT22;61865;50.232;18.614;2022-07-22T03:39:36;19.80;84.20
73586;DHT22;61865;50.232;18.614;2022-07-22T03:41:58;19.90;83.90
73586;DHT22;61865;50.232;18.614;2022-07-22T03:44:20;20.00;83.40
73586;DHT22;61865;50.232;18.614;2022-07-22T03:46:42;20.00;82.80
73586;DHT22;61865;50.232;18.614;2022-07-22T03:49:04;20.10;82.40
73586;DHT22;61865;50.232;18.614;2022-07-22T03:51:27;20.10;81.90
73586;DHT22;61865;50.232;18.614;2022-07-22T03:53:49;20.20;82.20
73586;DHT22;61865;50.232;18.614;2022-07-22T03:56:11;20.30;81.20
73586;DHT22;61865;50.232;18.614;2022-07-22T03:58:33;20.30;81.60
73586;DHT22;61865;50.232;18.614;2022-07-22T04:00:55;20.30;81.10
73586;DHT22;61865;50.232;18.614;2022-07-22T04:03:17;20.30;80.50
73586;DHT22;61865;50.232;18.614;2022-07-22T04:05:39;20.30;80.30
73586;DHT22;61865;50.232;18.614;2022-07-22T04:08:02;20.40;79.90
73586;DHT22;61865;50.232;18.614;2022-07-22T04:10:24;20.40;79.90
73586;DHT22;61865;50.232;18.614;2022-07-22T04:12:46;20.50;79.00
73586;DHT22;61865;50.232;18.614;2022-07-22T04:15:09;20.60;78.90
73586;DHT22;61865;50.232;18.614;2022-07-22T04:17:31;20.70;78.20
73586;DHT22;61865;50.232;18.614;2022-07-22T04:19:53;20.80;76.90
73586;DHT22;61865;50.232;18.614;2022-07-22T04:22:15;20.90;76.60
73586;DHT22;61865;50.232;18.614;2022-07-22T04:24:38;21.00;75.60
73586;DHT22;61865;50.232;18.614;2022-07-22T04:27:00;21.10;75.00
73586;DHT22;61865;50.232;18.614;2022-07-22T04:29:22;21.10;74.60
73586;DHT22;61865;50.232;18.614;2022-07-22T04:31:43;21.20;74.40
73586;DHT22;61865;50.232;18.614;2022-07-22T04:34:05;21.30;73.80
73586;DHT22;61865;50.232;18.614;2022-07-22T04:36:27;21.40;73.50
73586;DHT22;61865;50.232;18.614;2022-07-22T04:38:49;21.40;73.20
73586;DHT22;61865;50.232;18.614;2022-07-22T04:41:13;21.40;73.20
73586;DHT22;61865;50.232;18.614;2022-07-22T04:43:34;21.60;73.30
73586;DHT22;61865;50.232;18.614;2022-07-22T04:45:56;21.80;72.70
73586;DHT22;61865;50.232;18.614;2022-07-22T04:48:18;22.10;72.20
73586;DHT22;61865;50.232;18.614;2022-07-22T04:50:40;22.50;70.20
73586;DHT22;61865;50.232;18.614;2022-07-22T04:53:02;23.00;67.80
73586;DHT22;61865;50.232;18.614;2022-07-22T04:55:24;23.20;66.80
73586;DHT22;61865;50.232;18.614;2022-07-22T04:57:47;23.60;66.80
73586;DHT22;61865;50.232;18.614;2022-07-22T05:00:10;24.20;63.00
73586;DHT22;61865;50.232;18.614;2022-07-22T05:02:32;24.30;62.50
73586;DHT22;61865;50.232;18.614;2022-07-22T05:04:54;25.00;59.00
73586;DHT22;61865;50.232;18.614;2022-07-22T05:07:16;25.40;57.60
73586;DHT22;61865;50.232;18.614;2022-07-22T05:09:38;25.60;56.50
73586;DHT22;61865;50.232;18.614;2022-07-22T05:12:00;25.90;55.60
73586;DHT22;61865;50.232;18.614;2022-07-22T05:14:23;25.40;56.00
73586;DHT22;61865;50.232;18.614;2022-07-22T05:16:45;25.60;56.00
73586;DHT22;61865;50.232;18.614;2022-07-22T05:19:07;25.40;56.50
73586;DHT22;61865;50.232;18.614;2022-07-22T05:21:29;25.20;57.10
73586;DHT22;61865;50.232;18.614;2022-07-22T05:23:51;25.20;57.10
73586;DHT22;61865;50.232;18.614;2022-07-22T05:26:12;25.30;57.10
73586;DHT22;61865;50.232;18.614;2022-07-22T05:28:34;25.20;57.10
73586;DHT22;61865;50.232;18.614;2022-07-22T05:30:58;25.10;57.30
73586;DHT22;61865;50.232;18.614;2022-07-22T05:33:20;25.20;58.30
73586;DHT22;61865;50.232;18.614;2022-07-22T05:35:42;25.10;58.60
73586;DHT22;61865;50.232;18.614;2022-07-22T05:38:03;25.10;59.40
73586;DHT22;61865;50.232;18.614;2022-07-22T05:40:26;24.80;58.60
73586;DHT22;61865;50.232;18.614;2022-07-22T05:42:49;24.70;59.50
73586;DHT22;61865;50.232;18.614;2022-07-22T05:45:11;24.90;58.80
73586;DHT22;61865;50.232;18.614;2022-07-22T05:47:34;24.90;59.10
73586;DHT22;61865;50.232;18.614;2022-07-22T05:49:56;25.20;57.80
73586;DHT22;61865;50.232;18.614;2022-07-22T05:52:18;25.50;57.30
73586;DHT22;61865;50.232;18.614;2022-07-22T05:54:40;25.40;56.90
73586;DHT22;61865;50.232;18.614;2022-07-22T05:57:02;25.40;56.80
73586;DHT22;61865;50.232;18.614;2022-07-22T05:59:24;25.50;57.10
73586;DHT22;61865;50.232;18.614;2022-07-22T06:01:46;25.60;57.20
73586;DHT22;61865;50.232;18.614;2022-07-22T06:04:09;25.80;56.90
73586;DHT22;61865;50.232;18.614;2022-07-22T06:06:31;25.80;58.50
73586;DHT22;61865;50.232;18.614;2022-07-22T06:08:53;25.80;57.80
73586;DHT22;61865;50.232;18.614;2022-07-22T06:11:14;25.80;57.50
73586;DHT22;61865;50.232;18.614;2022-07-22T06:13:37;25.70;57.80
73586;DHT22;61865;50.232;18.614;2022-07-22T06:16:00;25.80;57.60
73586;DHT22;61865;50.232;18.614;2022-07-22T06:18:22;25.80;58.00
73586;DHT22;61865;50.232;18.614;2022-07-22T06:20:45;25.10;59.50
73586;DHT22;61865;50.232;18.614;2022-07-22T06:23:07;25.30;60.50
73586;DHT22;61865;50.232;18.614;2022-07-22T06:25:29;25.20;60.50
73586;DHT22;61865;50.232;18.614;2022-07-22T06:27:51;25.50;58.60
73586;DHT22;61865;50.232;18.614;2022-07-22T06:30:13;25.40;59.90
73586;DHT22;61865;50.232;18.614;2022-07-22T06:32:35;25.50;60.40
73586;DHT22;61865;50.232;18.614;2022-07-22T06:34:56;24.90;62.10
73586;DHT22;61865;50.232;18.614;2022-07-22T06:37:20;24.70;61.90
73586;DHT22;61865;50.232;18.614;2022-07-22T06:39:41;24.50;62.30
73586;DHT22;61865;50.232;18.614;2022-07-22T06:42:04;24.30;62.20
73586;DHT22;61865;50.232;18.614;2022-07-22T06:44:26;24.40;62.10
73586;DHT22;61865;50.232;18.614;2022-07-22T06:46:48;24.50;60.30
73586;DHT22;61865;50.232;18.614;2022-07-22T06:49:10;24.70;60.40
73586;DHT22;61865;50.232;18.614;2022-07-22T06:51:32;24.80;59.50
73586;DHT22;61865;50.232;18.614;2022-07-22T06:53:55;24.90;60.90
73586;DHT22;61865;50.232;18.614;2022-07-22T06:56:17;25.00;62.30
73586;DHT22;61865;50.232;18.614;2022-07-22T06:58:39;25.20;62.20
73586;DHT22;61865;50.232;18.614;2022-07-22T07:01:01;25.50;60.00
73586;DHT22;61865;50.232;18.614;2022-07-22T07:03:23;25.50;58.90
73586;DHT22;61865;50.232;18.614;2022-07-22T07:05:46;25.40;58.00
73586;DHT22;61865;50.232;18.614;2022-07-22T07:08:07;25.50;59.70
73586;DHT22;61865;50.232;18.614;2022-07-22T07:10:31;25.60;58.40
73586;DHT22;61865;50.232;18.614;2022-07-22T07:12:55;25.80;58.30
73586;DHT22;61865;50.232;18.614;2022-07-22T07:15:17;25.90;58.40
73586;DHT22;61865;50.232;18.614;2022-07-22T07:17:39;26.20;57.40
73586;DHT22;61865;50.232;18.614;2022-07-22T07:20:01;26.10;57.00
73586;DHT22;61865;50.232;18.614;2022-07-22T07:22:23;25.90;58.40
73586;DHT22;61865;50.232;18.614;2022-07-22T07:24:45;26.10;58.10
73586;DHT22;61865;50.232;18.614;2022-07-22T07:27:08;26.00;56.40
73586;DHT22;61865;50.232;18.614;2022-07-22T07:29:30;25.90;58.90
73586;DHT22;61865;50.232;18.614;2022-07-22T07:31:52;26.00;58.50
73586;DHT22;61865;50.232;18.614;2022-07-22T07:34:13;26.10;56.50
73586;DHT22;61865;50.232;18.614;2022-07-22T07:36:35;26.20;56.50
73586;DHT22;61865;50.232;18.614;2022-07-22T07:38:57;26.20;55.90
73586;DHT22;61865;50.232;18.614;2022-07-22T07:41:19;26.20;55.80
73586;DHT22;61865;50.232;18.614;2022-07-22T07:43:42;26.20;54.90
73586;DHT22;61865;50.232;18.614;2022-07-22T07:46:05;26.00;54.80
73586;DHT22;61865;50.232;18.614;2022-07-22T07:48:26;26.00;54.20
73586;DHT22;61865;50.232;18.614;2022-07-22T07:50:48;25.90;55.30
73586;DHT22;61865;50.232;18.614;2022-07-22T07:53:13;26.00;55.30
73586;DHT22;61865;50.232;18.614;2022-07-22T07:55:35;26.00;55.50
73586;DHT22;61865;50.232;18.614;2022-07-22T07:57:58;26.30;55.10
73586;DHT22;61865;50.232;18.614;2022-07-22T08:00:24;26.20;54.30
73586;DHT22;61865;50.232;18.614;2022-07-22T08:02:48;26.30;54.70
73586;DHT22;61865;50.232;18.614;2022-07-22T08:05:10;26.30;53.20
73586;DHT22;61865;50.232;18.614;2022-07-22T08:07:32;26.30;53.60
73586;DHT22;61865;50.232;18.614;2022-07-22T08:09:54;26.40;53.20
73586;DHT22;61865;50.232;18.614;2022-07-22T08:12:16;26.30;54.00
73586;DHT22;61865;50.232;18.614;2022-07-22T08:14:38;26.30;52.70
73586;DHT22;61865;50.232;18.614;2022-07-22T08:17:01;26.40;52.90
73586;DHT22;61865;50.232;18.614;2022-07-22T08:19:24;26.70;53.00
73586;DHT22;61865;50.232;18.614;2022-07-22T08:21:46;26.50;52.90
73586;DHT22;61865;50.232;18.614;2022-07-22T08:24:08;26.60;52.80
73586;DHT22;61865;50.232;18.614;2022-07-22T08:26:30;26.60;52.00
73586;DHT22;61865;50.232;18.614;2022-07-22T08:28:52;26.70;54.00
73586;DHT22;61865;50.232;18.614;2022-07-22T08:31:14;26.60;53.30
73586;DHT22;61865;50.232;18.614;2022-07-22T08:33:38;26.50;52.80
73586;DHT22;61865;50.232;18.614;2022-07-22T08:36:00;26.60;53.30
73586;DHT22;61865;50.232;18.614;2022-07-22T08:38:23;26.70;53.90
73586;DHT22;61865;50.232;18.614;2022-07-22T08:40:45;26.80;53.20
73586;DHT22;61865;50.232;18.614;2022-07-22T08:43:07;27.00;51.70
73586;DHT22;61865;50.232;18.614;2022-07-22T08:45:30;27.10;51.80
73586;DHT22;61865;50.232;18.614;2022-07-22T08:47:53;27.40;51.80
73586;DHT22;61865;50.232;18.614;2022-07-22T08:50:17;27.50;51.60
73586;DHT22;61865;50.232;18.614;2022-07-22T08:52:39;27.60;51.50
73586;DHT22;61865;50.232;18.614;2022-07-22T08:55:03;27.80;51.60
73586;DHT22;61865;50.232;18.614;2022-07-22T08:57:25;27.80;51.40
73586;DHT22;61865;50.232;18.614;2022-07-22T08:59:51;27.70;50.00
73586;DHT22;61865;50.232;18.614;2022-07-22T09:02:13;27.70;50.30
73586;DHT22;61865;50.232;18.614;2022-07-22T09:04:54;27.50;50.00
73586;DHT22;61865;50.232;18.614;2022-07-22T09:07:28;27.50;50.90
73586;DHT22;61865;50.232;18.614;2022-07-22T09:09:50;27.50;51.60
73586;DHT22;61865;50.232;18.614;2022-07-22T09:12:12;27.60;51.20
73586;DHT22;61865;50.232;18.614;2022-07-22T09:14:44;27.70;50.50
73586;DHT22;61865;50.232;18.614;2022-07-22T09:17:06;27.80;49.90
73586;DHT22;61865;50.232;18.614;2022-07-22T09:19:32;27.90;49.90
73586;DHT22;61865;50.232;18.614;2022-07-22T09:21:55;28.10;50.30
73586;DHT22;61865;50.232;18.614;2022-07-22T09:24:29;27.80;49.50
73586;DHT22;61865;50.232;18.614;2022-07-22T09:26:54;27.70;50.30
73586;DHT22;61865;50.232;18.614;2022-07-22T09:29:16;27.70;50.70
73586;DHT22;61865;50.232;18.614;2022-07-22T09:31:39;27.90;50.90
73586;DHT22;61865;50.232;18.614;2022-07-22T09:34:01;28.10;50.80
73586;DHT22;61865;50.232;18.614;2022-07-22T09:36:24;28.00;49.60
73586;DHT22;61865;50.232;18.614;2022-07-22T09:38:46;27.80;50.20
73586;DHT22;61865;50.232;18.614;2022-07-22T09:41:09;27.70;50.50
73586;DHT22;61865;50.232;18.614;2022-07-22T09:43:35;27.80;50.80
73586;DHT22;61865;50.232;18.614;2022-07-22T09:45:57;28.10;50.40
73586;DHT22;61865;50.232;18.614;2022-07-22T09:48:21;28.10;49.60
73586;DHT22;61865;50.232;18.614;2022-07-22T09:50:43;28.00;49.60
73586;DHT22;61865;50.232;18.614;2022-07-22T09:53:06;28.20;49.80
73586;DHT22;61865;50.232;18.614;2022-07-22T09:55:28;28.30;49.30
73586;DHT22;61865;50.232;18.614;2022-07-22T09:57:53;28.30;49.80
73586;DHT22;61865;50.232;18.614;2022-07-22T10:00:17;28.40;48.70
73586;DHT22;61865;50.232;18.614;2022-07-22T10:02:42;28.30;48.10
73586;DHT22;61865;50.232;18.614;2022-07-22T10:05:07;28.50;48.70
73586;DHT22;61865;50.232;18.614;2022-07-22T10:07:30;28.20;49.00
73586;DHT22;61865;50.232;18.614;2022-07-22T10:09:53;28.30;48.40
73586;DHT22;61865;50.232;18.614;2022-07-22T10:12:16;28.30;48.70
73586;DHT22;61865;50.232;18.614;2022-07-22T10:14:40;28.00;47.70
73586;DHT22;61865;50.232;18.614;2022-07-22T10:17:03;28.00;48.90
73586;DHT22;61865;50.232;18.614;2022-07-22T10:19:26;28.20;48.60
73586;DHT22;61865;50.232;18.614;2022-07-22T10:21:48;28.20;47.80
73586;DHT22;61865;50.232;18.614;2022-07-22T10:24:11;28.30;48.20
73586;DHT22;61865;50.232;18.614;2022-07-22T10:26:46;28.50;47.50
73586;DHT22;61865;50.232;18.614;2022-07-22T10:29:24;28.50;46.30
73586;DHT22;61865;50.232;18.614;2022-07-22T10:31:47;28.70;47.00
73586;DHT22;61865;50.232;18.614;2022-07-22T10:34:09;28.50;45.10
73586;DHT22;61865;50.232;18.614;2022-07-22T10:36:34;28.70;46.30
73586;DHT22;61865;50.232;18.614;2022-07-22T10:39:06;28.70;45.40
73586;DHT22;61865;50.232;18.614;2022-07-22T10:41:33;28.80;45.00
73586;DHT22;61865;50.232;18.614;2022-07-22T10:43:55;28.70;44.40
73586;DHT22;61865;50.232;18.614;2022-07-22T10:46:17;28.80;44.60
73586;DHT22;61865;50.232;18.614;2022-07-22T10:48:47;28.70;45.00
73586;DHT22;61865;50.232;18.614;2022-07-22T10:51:11;28.90;44.90
73586;DHT22;61865;50.232;18.614;2022-07-22T10:53:42;29.00;44.40
73586;DHT22;61865;50.232;18.614;2022-07-22T10:56:11;29.40;44.40
73586;DHT22;61865;50.232;18.614;2022-07-22T10:58:46;29.40;43.20
73586;DHT22;61865;50.232;18.614;2022-07-22T11:01:10;29.50;44.60
73586;DHT22;61865;50.232;18.614;2022-07-22T11:03:33;29.70;43.80
73586;DHT22;61865;50.232;18.614;2022-07-22T11:05:57;29.70;43.60
73586;DHT22;61865;50.232;18.614;2022-07-22T11:08:34;29.50;43.30
73586;DHT22;61865;50.232;18.614;2022-07-22T11:10:56;29.50;42.90
73586;DHT22;61865;50.232;18.614;2022-07-22T11:13:30;29.40;42.80
73586;DHT22;61865;50.232;18.614;2022-07-22T11:15:52;29.50;42.90
73586;DHT22;61865;50.232;18.614;2022-07-22T11:18:14;29.70;42.40
73586;DHT22;61865;50.232;18.614;2022-07-22T11:20:36;29.80;43.10
73586;DHT22;61865;50.232;18.614;2022-07-22T11:23:00;30.10;42.80
73586;DHT22;61865;50.232;18.614;2022-07-22T11:25:26;30.00;42.10
73586;DHT22;61865;50.232;18.614;2022-07-22T11:27:50;30.10;41.50
73586;DHT22;61865;50.232;18.614;2022-07-22T11:30:14;30.20;41.40
73586;DHT22;61865;50.232;18.614;2022-07-22T11:32:42;30.20;41.30
73586;DHT22;61865;50.232;18.614;2022-07-22T11:35:10;30.30;40.90
73586;DHT22;61865;50.232;18.614;2022-07-22T11:37:32;30.70;41.20
73586;DHT22;61865;50.232;18.614;2022-07-22T11:40:01;31.00;39.70
73586;DHT22;61865;50.232;18.614;2022-07-22T11:42:25;31.00;40.10
73586;DHT22;61865;50.232;18.614;2022-07-22T11:44:46;31.00;39.20
73586;DHT22;61865;50.232;18.614;2022-07-22T11:47:10;30.80;39.30
73586;DHT22;61865;50.232;18.614;2022-07-22T11:49:33;30.90;39.80
73586;DHT22;61865;50.232;18.614;2022-07-22T11:51:56;31.20;40.20
73586;DHT22;61865;50.232;18.614;2022-07-22T11:54:18;31.40;39.50
73586;DHT22;61865;50.232;18.614;2022-07-22T11:56:41;31.30;38.40
73586;DHT22;61865;50.232;18.614;2022-07-22T11:59:04;31.40;38.90
73586;DHT22;61865;50.232;18.614;2022-07-22T12:01:28;31.60;39.50
73586;DHT22;61865;50.232;18.614;2022-07-22T12:03:51;31.50;39.20
73586;DHT22;61865;50.232;18.614;2022-07-22T12:06:15;31.60;39.40
73586;DHT22;61865;50.232;18.614;2022-07-22T12:08:41;31.30;38.40
73586;DHT22;61865;50.232;18.614;2022-07-22T12:11:03;31.10;38.80
73586;DHT22;61865;50.232;18.614;2022-07-22T12:13:31;31.10;40.20
73586;DHT22;61865;50.232;18.614;2022-07-22T12:15:52;31.20;38.80
73586;DHT22;61865;50.232;18.614;2022-07-22T12:18:16;31.20;40.90
73586;DHT22;61865;50.232;18.614;2022-07-22T12:20:43;31.10;39.10
73586;DHT22;61865;50.232;18.614;2022-07-22T12:23:05;31.00;40.20
73586;DHT22;61865;50.232;18.614;2022-07-22T12:25:27;31.00;39.30
73586;DHT22;61865;50.232;18.614;2022-07-22T12:27:59;31.10;38.20
73586;DHT22;61865;50.232;18.614;2022-07-22T12:30:23;31.20;38.50
73586;DHT22;61865;50.232;18.614;2022-07-22T12:32:47;31.40;38.70
73586;DHT22;61865;50.232;18.614;2022-07-22T12:35:09;31.30;37.70
73586;DHT22;61865;50.232;18.614;2022-07-22T12:37:42;31.30;39.10
73586;DHT22;61865;50.232;18.614;2022-07-22T12:40:06;31.30;37.10
73586;DHT22;61865;50.232;18.614;2022-07-22T12:42:31;31.40;38.10
73586;DHT22;61865;50.232;18.614;2022-07-22T12:45:03;31.40;37.50
73586;DHT22;61865;50.232;18.614;2022-07-22T12:47:47;31.50;36.70
73586;DHT22;61865;50.232;18.614;2022-07-22T12:50:19;31.30;37.90
73586;DHT22;61865;50.232;18.614;2022-07-22T12:52:41;31.20;37.40
73586;DHT22;61865;50.232;18.614;2022-07-22T12:55:04;31.10;37.60
73586;DHT22;61865;50.232;18.614;2022-07-22T12:57:26;31.20;37.50
73586;DHT22;61865;50.232;18.614;2022-07-22T12:59:51;31.40;37.10
73586;DHT22;61865;50.232;18.614;2022-07-22T13:02:13;31.10;37.10
73586;DHT22;61865;50.232;18.614;2022-07-22T13:04:36;31.30;37.00
73586;DHT22;61865;50.232;18.614;2022-07-22T13:06:58;31.40;37.00
73586;DHT22;61865;50.232;18.614;2022-07-22T13:09:20;31.60;36.40
73586;DHT22;61865;50.232;18.614;2022-07-22T13:11:42;31.60;37.30
73586;DHT22;61865;50.232;18.614;2022-07-22T13:14:05;31.70;36.70
73586;DHT22;61865;50.232;18.614;2022-07-22T13:16:27;31.90;37.60
73586;DHT22;61865;50.232;18.614;2022-07-22T13:18:50;32.20;36.20
73586;DHT22;61865;50.232;18.614;2022-07-22T13:21:13;32.40;35.90
73586;DHT22;61865;50.232;18.614;2022-07-22T13:23:34;32.10;35.20
73586;DHT22;61865;50.232;18.614;2022-07-22T13:25:56;31.80;36.00
73586;DHT22;61865;50.232;18.614;2022-07-22T13:28:18;31.80;37.10
73586;DHT22;61865;50.232;18.614;2022-07-22T13:30:40;32.00;37.10
73586;DHT22;61865;50.232;18.614;2022-07-22T13:33:02;31.70;36.60
73586;DHT22;61865;50.232;18.614;2022-07-22T13:35:24;31.50;36.30
73586;DHT22;61865;50.232;18.614;2022-07-22T13:37:47;31.60;38.10
73586;DHT22;61865;50.232;18.614;2022-07-22T13:40:09;31.40;38.00
73586;DHT22;61865;50.232;18.614;2022-07-22T13:42:31;31.10;37.70
73586;DHT22;61865;50.232;18.614;2022-07-22T13:44:53;31.40;38.90
73586;DHT22;61865;50.232;18.614;2022-07-22T13:47:15;31.00;38.20
73586;DHT22;61865;50.232;18.614;2022-07-22T13:49:37;30.90;38.20
73586;DHT22;61865;50.232;18.614;2022-07-22T13:51:59;30.70;38.90
73586;DHT22;61865;50.232;18.614;2022-07-22T13:54:23;31.00;39.70
73586;DHT22;61865;50.232;18.614;2022-07-22T13:56:45;31.40;38.50
73586;DHT22;61865;50.232;18.614;2022-07-22T13:59:07;31.50;39.00
73586;DHT22;61865;50.232;18.614;2022-07-22T14:01:29;31.10;38.80
73586;DHT22;61865;50.232;18.614;2022-07-22T14:03:52;31.20;38.50
73586;DHT22;61865;50.232;18.614;2022-07-22T14:06:14;31.30;38.30
73586;DHT22;61865;50.232;18.614;2022-07-22T14:08:36;31.50;38.30
73586;DHT22;61865;50.232;18.614;2022-07-22T14:10:59;31.40;38.50
73586;DHT22;61865;50.232;18.614;2022-07-22T14:13:21;31.40;38.40
73586;DHT22;61865;50.232;18.614;2022-07-22T14:15:43;31.50;38.40
73586;DHT22;61865;50.232;18.614;2022-07-22T14:18:05;31.60;38.40
73586;DHT22;61865;50.232;18.614;2022-07-22T14:20:27;31.70;39.00
73586;DHT22;61865;50.232;18.614;2022-07-22T14:22:49;31.70;37.20
73586;DHT22;61865;50.232;18.614;2022-07-22T14:25:11;31.90;36.10
73586;DHT22;61865;50.232;18.614;2022-07-22T14:27:34;32.10;36.10
73586;DHT22;61865;50.232;18.614;2022-07-22T14:29:56;32.20;36.60
73586;DHT22;61865;50.232;18.614;2022-07-22T14:32:18;32.40;37.50
73586;DHT22;61865;50.232;18.614;2022-07-22T14:34:40;32.40;36.50
73586;DHT22;61865;50.232;18.614;2022-07-22T14:37:02;32.30;36.60
73586;DHT22;61865;50.232;18.614;2022-07-22T14:39:23;31.80;36.10
73586;DHT22;61865;50.232;18.614;2022-07-22T14:41:45;31.50;36.90
73586;DHT22;61865;50.232;18.614;2022-07-22T14:44:08;31.70;36.90
73586;DHT22;61865;50.232;18.614;2022-07-22T14:46:30;31.90;38.20
73586;DHT22;61865;50.232;18.614;2022-07-22T14:48:52;32.00;37.60